Latest Weather Observations for Yeppoon

IDQ60801

Issued at 12:32 pm EST Saturday 29 August 2015 (issued every 30 minutes, with the page automatically refreshed every 10 minutes)

About weather observations | Map of weather stations | Latest weather observations for QLD | Other Formats
Station Details ID: 033294 Name: YEPPOON THE ESPLANADE Lat: -23.14 Lon: 150.75 Height: 5.5 m
Data from the previous 72 hours. | See also: Recent months at Yeppoon
Date/Time
EST
Temp
°C
App
Temp
°C
Dew
Point
Rel
Hum
%
Delta-T
°C
Wind Press
QNH
hPa
Press
MSL
hPa
Rain
since 9 am
mm
Dir
 
Spd
km/h
Gust
km/h
Spd
kts
Gust
kts
29/12:30pm 23.0 23.6 19.4 80 2.3 ENE 15 17 8 9 1019.6 1019.6 0.0
29/12:00pm 23.2 23.4 19.4 79 2.4 E 17 19 9 10 1020.3 1020.3 0.0
29/11:30am 23.3 23.3 18.9 76 2.8 E 17 20 9 11 1020.8 1020.8 0.0
29/11:00am 23.1 23.1 19.0 78 2.6 E 17 20 9 11 1021.0 1021.0 0.0
29/10:30am 22.8 22.9 19.2 80 2.3 E 17 20 9 11 1021.5 1021.5 0.0
29/10:00am 23.1 23.5 19.0 78 2.6 E 15 20 8 11 1021.8 1021.8 0.0
29/09:30am 22.1 22.9 19.1 83 1.9 E 13 17 7 9 1021.8 1021.8 0.0
29/09:00am 22.2 23.6 18.7 80 2.2 ESE 9 13 5 7 1021.6 1021.6 0.0
29/08:30am 21.7 23.3 19.2 86 1.6 SE 9 15 5 8 1021.2 1021.2 0.0
29/08:00am 20.0 22.6 19.2 95 0.5 SW 4 7 2 4 1020.8 1020.8 0.0
29/07:30am 17.4 17.6 16.7 96 0.4 WNW 11 13 6 7 1020.7 1020.7 0.0
29/07:00am 16.6 16.6 16.3 98 0.2 W 11 13 6 7 1020.5 1020.5 0.0
29/06:30am 16.7 17.1 16.2 97 0.3 WSW 9 11 5 6 1020.1 1020.1 0.0
29/06:00am 17.0 18.0 16.8 99 0.1 WSW 7 11 4 6 1020.1 1020.1 0.0
29/05:30am 17.1 18.3 16.8 98 0.2 WSW 6 9 3 5 1019.9 1019.9 0.0
29/05:00am 17.2 18.2 16.9 98 0.2 WSW 7 9 4 5 1019.6 1019.6 0.0
29/04:30am 17.3 18.0 17.0 98 0.2 W 9 11 5 6 1019.4 1019.4 0.0
29/04:00am 17.4 18.1 17.1 98 0.2 WSW 9 11 5 6 1019.4 1019.4 0.0
29/03:30am 17.8 18.2 17.3 97 0.3 W 11 13 6 7 1019.6 1019.6 0.0
29/03:00am 17.7 18.0 17.0 96 0.4 W 11 15 6 8 1019.7 1019.7 0.0
29/02:30am 17.2 17.4 16.7 97 0.3 WNW 11 13 6 7 1020.0 1020.0 0.0
29/02:00am 17.4 18.0 16.7 96 0.4 W 9 11 5 6 1020.0 1020.0 0.0
29/01:30am 17.1 17.9 16.3 95 0.5 W 7 9 4 5 1020.2 1020.2 0.0
29/01:00am 17.2 18.3 16.5 96 0.4 WSW 6 7 3 4 1020.2 1020.2 0.0
29/12:30am 17.4 18.3 16.7 96 0.4 SW 7 9 4 5 1020.3 1020.3 0.0
29/12:00am 17.9 19.6 17.2 96 0.4 WSW 4 9 2 5 1020.4 1020.4 0.0
 
Date/Time
EST
Temp
°C
App
Temp
°C
Dew
Point
Rel
Hum
%
Delta-T
°C
Wind Press
QNH
hPa
Press
MSL
hPa
Rain
since 9 am
mm
Dir
 
Spd
km/h
Gust
km/h
Spd
kts
Gust
kts
28/11:30pm 18.1 19.2 17.1 94 0.6 WSW 7 11 4 6 1020.6 1020.6 0.0
28/11:00pm 18.4 19.2 17.2 93 0.7 W 9 13 5 7 1020.6 1020.6 0.0
28/10:30pm 19.1 20.6 17.6 91 0.9 SW 6 9 3 5 1020.7 1020.7 0.0
28/10:00pm 20.5 22.3 18.4 88 1.3 NNW 6 7 3 4 1020.6 1020.6 0.0
28/09:30pm 20.9 22.1 18.3 85 1.6 N 9 11 5 6 1020.7 1020.7 0.0
28/09:00pm 21.4 22.0 18.5 83 1.8 N 13 15 7 8 1020.5 1020.5 0.0
28/08:30pm 21.9 21.7 18.4 80 2.2 NNE 17 20 9 11 1020.4 1020.4 0.0
28/08:00pm 21.9 21.8 18.7 82 2.0 NNE 17 20 9 11 1020.2 1020.2 0.0
28/07:30pm 22.0 21.9 18.7 81 2.1 NNE 17 22 9 12 1019.7 1019.7 0.0
28/07:00pm 22.0 21.9 18.7 81 2.1 NNE 17 20 9 11 1019.2 1019.2 0.0
28/06:30pm 22.1 21.2 18.3 79 2.4 NNE 20 22 11 12 1019.0 1019.0 0.0
28/06:00pm 22.1 21.5 18.4 79 2.3 NNE 19 22 10 12 1018.7 1018.7 0.0
28/05:30pm 22.0 21.6 18.8 82 2.0 NNE 19 22 10 12 1018.8 1018.8 0.0
28/05:00pm 22.2 22.2 18.9 81 2.1 NNE 17 20 9 11 1018.5 1018.5 0.0
28/04:30pm 22.2 21.6 18.4 79 2.4 NE 19 22 10 12 1017.9 1017.9 0.0
28/04:00pm 22.8 22.0 18.5 77 2.7 NNE 20 24 11 13 1017.6 1017.6 0.0
28/03:30pm 23.1 22.6 18.7 76 2.8 NNE 19 22 10 12 1017.4 1017.4 0.0
28/03:00pm 23.1 23.0 18.8 77 2.7 NNE 17 20 9 11 1017.7 1017.7 0.0
28/02:30pm 22.8 22.7 18.7 77 2.6 NNE 17 20 9 11 1018.0 1018.0 0.0
28/02:00pm 24.0 23.9 18.8 72 3.3 NNE 17 20 9 11 1018.4 1018.4 0.0
28/01:30pm 23.6 24.0 19.0 75 2.9 NE 15 19 8 10 1018.8 1018.8 0.0
28/01:00pm 23.2 23.5 18.8 76 2.8 NE 15 17 8 9 1019.3 1019.3 0.0
28/12:30pm 23.0 23.5 19.2 79 2.4 ENE 15 17 8 9 1019.8 1019.8 0.0
28/12:00pm 22.9 23.3 18.9 78 2.5 ENE 15 19 8 10 1020.2 1020.2 0.0
28/11:30am 23.1 23.5 19.0 78 2.6 ENE 15 17 8 9 1020.6 1020.6 0.0
28/11:00am 23.2 23.4 18.6 75 2.9 ENE 15 17 8 9 1021.2 1021.2 0.0
28/10:30am 23.0 23.6 18.5 76 2.8 ENE 13 15 7 8 1021.5 1021.5 0.0
28/10:00am 22.5 23.5 18.7 79 2.4 E 11 15 6 8 1021.7 1021.7 0.0
28/09:30am 22.3 24.0 18.5 79 2.4 S 7 11 4 6 1021.9 1021.9 0.0
28/09:00am 21.8 23.2 18.6 82 2.0 SSW 9 11 5 6 1022.0 1022.0 0.0
28/08:30am 21.7 23.7 19.2 86 1.6 S 7 11 4 6 1021.8 1021.8 0.0
28/08:00am 20.5 22.5 18.7 89 1.1 W 6 9 3 5 1021.5 1021.5 0.0
28/07:30am 19.4 21.1 18.6 95 0.5 W 7 11 4 6 1021.2 1021.2 0.0
28/07:00am 17.7 18.5 17.4 98 0.2 W 9 13 5 7 1021.0 1021.0 0.0
28/06:30am 16.8 19.0 16.5 98 0.2 CALM 0 2 0 1 1020.4 1020.4 0.0
28/06:00am 16.8 17.9 16.5 98 0.2 WSW 6 9 3 5 1020.3 1020.3 0.0
28/05:30am 17.4 18.0 16.9 97 0.3 W 9 13 5 7 1020.1 1020.1 0.0
28/05:00am 17.1 18.1 16.8 98 0.2 WSW 7 11 4 6 1019.6 1019.6 0.0
28/04:30am 16.9 17.7 16.4 97 0.3 W 7 9 4 5 1019.3 1019.3 0.0
28/04:00am 16.2 16.0 15.7 97 0.3 W 11 13 6 7 1019.4 1019.4 0.0
28/03:30am 16.5 17.2 16.2 98 0.2 WSW 7 9 4 5 1019.2 1019.2 0.0
28/03:00am 16.4 16.7 15.9 97 0.3 W 9 13 5 7 1019.5 1019.5 0.0
28/02:30am 16.8 17.6 16.3 97 0.3 SW 7 9 4 5 1019.5 1019.5 0.0
28/02:00am 17.3 18.5 16.8 97 0.3 W 6 9 3 5 1019.5 1019.5 0.0
28/01:30am 17.4 18.3 16.7 96 0.4 WSW 7 9 4 5 1019.9 1019.9 0.0
28/01:00am 17.8 19.0 17.3 97 0.3 SW 7 9 4 5 1020.2 1020.2 0.0
28/12:30am 17.7 18.8 17.0 96 0.4 SW 7 9 4 5 1020.3 1020.3 0.0
28/12:00am 18.2 19.5 17.2 94 0.6 S 6 7 3 4 1020.5 1020.5 0.0
 
Date/Time
EST
Temp
°C
App
Temp
°C
Dew
Point
Rel
Hum
%
Delta-T
°C
Wind Press
QNH
hPa
Press
MSL
hPa
Rain
since 9 am
mm
Dir
 
Spd
km/h
Gust
km/h
Spd
kts
Gust
kts
27/11:30pm 19.0 21.4 17.9 93 0.7 NNE 2 6 1 3 1020.6 1020.6 0.0
27/11:00pm 20.0 21.8 18.4 90 1.0 N 6 9 3 5 1020.9 1020.9 0.0
27/10:30pm 20.7 22.0 18.4 87 1.4 N 9 13 5 7 1021.1 1021.1 0.0
27/10:00pm 20.7 22.5 18.3 86 1.5 N 6 9 3 5 1021.3 1021.3 0.0
27/09:30pm 20.9 22.5 18.3 85 1.6 N 7 13 4 7 1021.3 1021.3 0.0
27/09:00pm 21.3 21.1 18.6 84 1.7 N 17 19 9 10 1021.1 1021.1 0.0
27/08:30pm 21.3 22.3 18.6 84 1.7 N 11 17 6 9 1021.1 1021.1 0.0
27/08:00pm 21.3 21.6 18.7 85 1.6 N 15 20 8 11 1020.7 1020.7 0.0
27/07:30pm 21.7 21.3 18.8 83 1.8 N 19 24 10 13 1020.5 1020.5 0.0
27/07:00pm 22.1 21.1 18.9 82 2.0 NNE 22 28 12 15 1020.1 1020.1 0.0
27/06:30pm 22.0 21.3 18.7 81 2.1 NNE 20 22 11 12 1019.8 1019.8 0.0
27/06:00pm 22.1 21.5 18.8 81 2.1 NNE 20 24 11 13 1019.5 1019.5 0.0
27/05:30pm 22.2 21.4 18.5 79 2.3 NNE 20 24 11 13 1019.1 1019.1 0.0
27/05:00pm 22.4 21.3 18.7 79 2.3 NE 22 26 12 14 1019.0 1019.0 0.0
27/04:30pm 22.6 21.7 18.1 76 2.8 NE 20 24 11 13 1018.8 1018.8 0.0
27/04:00pm 22.7 21.4 18.2 76 2.8 NE 22 24 12 13 1018.7 1018.7 0.0
27/03:30pm 23.2 22.4 18.1 73 3.2 NE 19 22 10 12 1018.8 1018.8 0.0
27/03:00pm 23.8 23.5 18.2 71 3.5 NE 17 20 9 11 1018.7 1018.7 0.0
27/02:30pm 23.3 23.4 18.4 74 3.1 NE 15 17 8 9 1018.8 1018.8 0.0
27/02:00pm 23.6 23.1 17.8 70 3.6 NE 17 19 9 10 1019.0 1019.0 0.0
27/01:30pm 23.6 23.2 18.0 71 3.5 NE 17 19 9 10 1019.2 1019.2 0.0
27/01:00pm 23.5 23.3 18.4 73 3.2 NE 17 19 9 10 1019.7 1019.7 0.0
27/12:30pm 23.7 23.9 18.5 72 3.3 NE 15 19 8 10 1020.3 1020.3 0.0
27/12:00pm 23.7 24.7 18.6 73 3.2 NE 11 15 6 8 1021.0 1021.0 0.0
27/11:30am 23.5 23.4 18.7 74 3.0 NE 17 19 9 10 1021.0 1021.0 0.0
27/11:00am 23.1 23.7 18.5 75 2.9 NE 13 17 7 9 1021.4 1021.4 0.0
27/10:30am 23.1 24.0 18.5 75 2.9 ENE 11 13 6 7 1021.9 1021.9 0.0
27/10:00am 22.9 24.2 18.4 76 2.8 ENE 9 11 5 6 1022.2 1022.2 0.0
27/09:30am 22.4 24.1 18.4 78 2.5 NE 7 9 4 5 1022.3 1022.3 0.0
27/09:00am 22.2 25.4 18.9 81 2.1 CALM 0 0 0 0 1022.5 1022.5 0.0
27/08:30am 20.3 22.1 18.7 90 1.0 W 7 9 4 5 1022.1 1022.1 0.0
27/08:00am 19.0 20.5 18.0 94 0.6 WNW 7 9 4 5 1021.9 1021.9 0.0
27/07:30am 16.8 17.1 15.9 94 0.5 W 9 13 5 7 1021.5 1021.5 0.0
27/07:00am 16.2 16.3 15.5 96 0.4 W 9 11 5 6 1021.3 1021.3 0.0
27/06:30am 15.7 15.7 15.2 97 0.3 W 9 11 5 6 1020.9 1020.9 0.0
27/06:00am 15.4 15.3 14.9 97 0.3 W 9 11 5 6 1020.4 1020.4 0.0
27/05:30am 15.4 15.9 15.1 98 0.2 WSW 6 9 3 5 1020.2 1020.2 0.0
27/05:00am 15.6 16.1 15.1 97 0.3 W 6 9 3 5 1019.8 1019.8 0.0
27/04:30am 15.9 16.0 15.4 97 0.3 W 9 9 5 5 1019.9 1019.9 0.0
27/04:00am 16.5 17.1 15.8 96 0.4 WSW 7 11 4 6 1020.1 1020.1 0.0
27/03:30am 16.8 17.1 16.1 96 0.4 WSW 9 11 5 6 1020.1 1020.1 0.0
27/03:00am 16.8 17.6 16.3 97 0.3 W 7 9 4 5 1020.4 1020.4 0.0
27/02:30am 16.9 17.7 16.4 97 0.3 W 7 11 4 6 1020.4 1020.4 0.0
27/02:00am 16.8 17.1 16.1 96 0.4 W 9 13 5 7 1020.8 1020.8 0.0
27/01:30am 17.1 17.9 16.4 96 0.4 SW 7 9 4 5 1020.7 1020.7 0.0
27/01:00am 17.3 18.2 16.5 95 0.5 W 7 9 4 5 1020.9 1020.9 0.0
27/12:30am 17.6 18.7 16.6 94 0.6 SW 6 7 3 4 1021.1 1021.1 0.0
27/12:00am 18.3 20.7 17.0 92 0.8 CALM 0 0 0 0 1021.3 1021.3 0.0
 
Date/Time
EST
Temp
°C
App
Temp
°C
Dew
Point
Rel
Hum
%
Delta-T
°C
Wind Press
QNH
hPa
Press
MSL
hPa
Rain
since 9 am
mm
Dir
 
Spd
km/h
Gust
km/h
Spd
kts
Gust
kts
26/11:30pm 19.1 20.6 17.5 90 1.0 N 6 7 3 4 1021.3 1021.3 0.0
26/11:00pm 19.8 21.2 17.3 85 1.5 NNW 6 11 3 6 1021.5 1021.5 0.0
26/10:30pm 19.9 21.4 17.6 86 1.4 NNW 6 9 3 5 1021.5 1021.5 0.0
26/10:00pm 20.2 21.6 17.8 86 1.5 NNW 7 11 4 6 1021.4 1021.4 0.0
26/09:30pm 20.3 21.5 18.2 88 1.3 N 9 13 5 7 1021.3 1021.3 0.0
26/09:00pm 20.6 21.1 18.3 87 1.4 N 13 15 7 8 1021.2 1021.2 0.0
26/08:30pm 20.7 21.2 18.4 87 1.4 N 13 19 7 10 1021.1 1021.1 0.0
26/08:00pm 21.1 20.7 18.9 87 1.4 N 19 22 10 12 1020.6 1020.6 0.0
26/07:30pm 21.8 19.5 19.3 86 1.6 NNE 30 33 16 18 1020.3 1020.3 0.0
26/07:00pm 21.8 19.1 19.3 86 1.6 NNE 32 35 17 19 1019.9 1019.9 0.0
26/06:30pm 21.9 19.2 19.2 85 1.7 NNE 32 35 17 19 1019.7 1019.7 0.0
26/06:00pm 21.9 19.8 19.0 83 1.8 NNE 28 32 15 17 1019.4 1019.4 0.0
26/05:30pm 22.0 20.1 19.3 85 1.7 NNE 28 32 15 17 1019.0 1019.0 0.0
26/05:00pm 22.3 20.3 19.1 82 2.0 NNE 28 33 15 18 1018.8 1018.8 0.0
26/04:30pm 22.4 20.0 19.2 82 2.0 NNE 30 33 16 18 1018.4 1018.4 0.0
26/04:00pm 22.8 20.5 19.3 80 2.2 NNE 30 33 16 18 1018.2 1018.2 0.0
26/03:30pm 23.0 21.4 19.2 79 2.4 NNE 26 32 14 17 1018.0 1018.0 0.0
26/03:00pm 23.1 21.5 19.3 79 2.4 NNE 26 32 14 17 1018.0 1018.0 0.0
26/02:30pm 23.4 21.3 19.0 76 2.8 NNE 28 33 15 18 1018.4 1018.4 0.0
26/02:00pm 23.9 22.4 19.4 76 2.9 NNE 26 30 14 16 1018.9 1018.9 0.0
26/01:30pm 24.0 23.0 19.6 76 2.8 NNE 24 28 13 15 1019.2 1019.2 0.0
26/01:00pm 24.1 23.1 19.7 76 2.8 NNE 24 28 13 15 1019.6 1019.6 0.0

Other Formats:

Comma delimited format used in spreadsheet applications
http://www.bom.gov.au/fwo/IDQ60801/IDQ60801.94373.axf

JavaScript Object Notation format (JSON) in row-major order
http://www.bom.gov.au/fwo/IDQ60801/IDQ60801.94373.json